Time;durP1;ratioP1;P1;durP2;ratioP2;P2;SDS_P1;SDS_P2;PMS_P1;PMS_P2;Temp;Humidity;BMP_temperature;BMP_pressure;BME280_temperature;BME280_humidity;BME280_pressure;Samples;Min_cycle;Max_cycle;Signal;HPM_P1;HPM_P2
2022/07/20 00:00:26;;;;;;;7.40;5.80;;;;;;;17.51;63.83;100618.08;130290;1267;108834;-74
2022/07/20 00:03:42;;;;;;;7.30;5.80;;;;;;;17.48;63.94;100616.80;130277;1268;108750;-75
2022/07/20 00:06:47;;;;;;;7.30;5.90;;;;;;;17.45;63.93;100612.45;130312;1268;108844;-76
2022/07/20 00:13:17;;;;;;;7.70;6.30;;;;;;;17.38;64.06;100616.19;130342;1268;108712;-76
2022/07/20 00:16:23;;;;;;;6.20;5.50;;;;;;;17.35;64.23;100614.86;130373;1268;108637;-75
2022/07/20 00:19:29;;;;;;;8.00;5.80;;;;;;;17.30;64.25;100618.45;130297;1268;108657;-75
2022/07/20 00:22:35;;;;;;;6.50;5.20;;;;;;;17.29;64.39;100616.65;130310;1267;108744;-74
2022/07/20 00:25:40;;;;;;;7.70;5.70;;;;;;;17.26;64.31;100619.45;130260;1267;109056;-74
2022/07/20 00:28:46;;;;;;;6.30;5.50;;;;;;;17.21;64.35;100618.88;130286;1267;108743;-75
2022/07/20 00:31:51;;;;;;;7.80;5.80;;;;;;;17.17;64.40;100626.04;130266;1267;107114;-72
2022/07/20 00:34:56;;;;;;;7.50;6.30;;;;;;;17.16;64.55;100629.89;130269;1267;109109;-72
2022/07/20 00:38:02;;;;;;;8.40;6.40;;;;;;;17.09;64.59;100626.06;130303;1267;108750;-72
2022/07/20 00:41:07;;;;;;;8.10;6.30;;;;;;;17.03;64.61;100626.91;130305;1267;108738;-72
2022/07/20 00:44:13;;;;;;;8.20;5.90;;;;;;;16.96;64.79;100626.73;130289;1267;108652;-72
2022/07/20 00:47:19;;;;;;;8.60;5.40;;;;;;;16.91;64.90;100631.99;130275;1267;108729;-73
2022/07/20 00:50:24;;;;;;;6.60;5.40;;;;;;;16.90;64.90;100633.77;130255;1267;108554;-72
2022/07/20 00:53:30;;;;;;;7.10;5.70;;;;;;;16.86;65.01;100633.09;130260;1267;108779;-72
2022/07/20 00:56:36;;;;;;;8.90;5.80;;;;;;;16.83;65.01;100636.15;130300;1267;108590;-72
2022/07/20 00:59:41;;;;;;;8.10;5.90;;;;;;;16.86;65.08;100641.80;130297;1267;107405;-72
2022/07/20 01:02:47;;;;;;;8.30;5.90;;;;;;;16.88;65.02;100638.88;130325;1267;108708;-71
2022/07/20 01:05:53;;;;;;;7.80;6.00;;;;;;;16.87;65.03;100641.40;130332;1267;108962;-72
2022/07/20 01:08:59;;;;;;;8.00;6.10;;;;;;;16.84;65.20;100642.68;130285;1267;108574;-72
2022/07/20 01:12:04;;;;;;;6.60;5.90;;;;;;;16.77;65.16;100646.39;130262;1267;108812;-71
2022/07/20 01:15:11;;;;;;;8.30;6.70;;;;;;;16.69;65.26;100653.27;130271;1267;108733;-70
2022/07/20 01:18:16;;;;;;;8.80;5.90;;;;;;;16.64;65.38;100652.25;130257;1267;108737;-71
2022/07/20 01:21:22;;;;;;;6.50;5.30;;;;;;;16.58;65.48;100654.21;130282;1267;108790;-71
2022/07/20 01:24:28;;;;;;;9.20;5.30;;;;;;;16.55;65.43;100654.83;130311;1267;108905;-71
2022/07/20 01:27:33;;;;;;;6.10;5.20;;;;;;;16.55;65.57;100655.30;130256;1267;108777;-72
2022/07/20 01:30:39;;;;;;;7.60;5.80;;;;;;;16.55;65.54;100653.01;130294;1267;108769;-72
2022/07/20 01:33:45;;;;;;;8.20;5.90;;;;;;;16.55;65.61;100654.46;130354;1267;107279;-74
2022/07/20 01:36:50;;;;;;;6.40;5.60;;;;;;;16.50;65.65;100654.48;130221;1267;108838;-74
2022/07/20 01:39:55;;;;;;;7.70;5.80;;;;;;;16.41;65.74;100651.59;130192;1267;108932;-73
2022/07/20 01:43:01;;;;;;;8.20;6.50;;;;;;;16.36;65.68;100649.42;130280;1267;108841;-73
2022/07/20 01:46:06;;;;;;;8.80;6.50;;;;;;;16.36;65.80;100651.69;130366;1267;108886;-71
2022/07/20 01:49:12;;;;;;;7.30;5.20;;;;;;;16.33;65.82;100651.14;130234;1267;108713;-73
2022/07/20 01:52:17;;;;;;;7.80;5.20;;;;;;;16.25;65.77;100650.05;130244;1267;108740;-72
2022/07/20 01:55:22;;;;;;;6.30;5.30;;;;;;;16.22;65.94;100650.17;130330;1267;107491;-72
2022/07/20 01:58:28;;;;;;;6.80;5.60;;;;;;;16.22;65.85;100648.27;130369;1267;108983;-72
2022/07/20 02:01:33;;;;;;;7.50;6.10;;;;;;;16.22;65.93;100649.86;130338;1267;108857;-71
2022/07/20 02:04:38;;;;;;;7.70;6.30;;;;;;;16.25;65.98;100647.59;130228;1267;108834;-71
2022/07/20 02:07:44;;;;;;;7.20;5.70;;;;;;;16.23;66.07;100647.59;130253;1267;108861;-73
2022/07/20 02:10:49;;;;;;;6.70;5.80;;;;;;;16.20;66.03;100649.27;130227;1267;109047;-72
2022/07/20 02:13:54;;;;;;;8.70;6.20;;;;;;;16.16;66.05;100647.92;130339;1267;108818;-73
2022/07/20 02:17:00;;;;;;;9.10;6.80;;;;;;;16.12;66.26;100651.41;130280;1267;108937;-72
2022/07/20 02:20:06;;;;;;;7.40;5.90;;;;;;;16.05;66.26;100652.77;130214;1267;108171;-76
2022/07/20 02:23:12;;;;;;;8.60;5.60;;;;;;;15.98;66.26;100655.75;130279;1267;108651;-85
2022/07/20 02:26:18;;;;;;;5.70;4.80;;;;;;;15.94;66.48;100658.13;130399;1267;108700;-71
2022/07/20 02:29:23;;;;;;;5.90;5.30;;;;;;;15.93;66.46;100659.01;130284;1267;108657;-71
2022/07/20 02:32:29;;;;;;;6.20;5.50;;;;;;;15.92;66.42;100655.69;130305;1267;107380;-71
2022/07/20 02:35:34;;;;;;;8.30;5.60;;;;;;;15.91;66.41;100658.48;130277;1266;108849;-72
2022/07/20 02:38:40;;;;;;;7.60;6.40;;;;;;;15.88;66.37;100654.33;130316;1267;108720;-76
2022/07/20 02:41:45;;;;;;;7.40;6.60;;;;;;;15.87;66.50;100656.39;130366;1267;108237;-73
2022/07/20 02:44:51;;;;;;;8.00;6.20;;;;;;;15.85;66.47;100650.79;130367;1267;108175;-73
2022/07/20 02:48:02;;;;;;;7.20;6.40;;;;;;;15.82;66.49;100652.20;130333;1267;107760;-73
2022/07/20 02:51:08;;;;;;;7.90;6.60;;;;;;;15.78;66.56;100657.11;130307;1267;109011;-70
2022/07/20 02:54:13;;;;;;;8.40;6.40;;;;;;;15.74;66.67;100659.89;130065;1267;107740;-73
2022/07/20 02:57:18;;;;;;;6.90;5.70;;;;;;;15.68;66.59;100665.92;130076;1267;107235;-70
2022/07/20 03:00:24;;;;;;;7.70;6.00;;;;;;;15.64;66.74;100673.77;130049;1267;108813;-70
2022/07/20 03:03:30;;;;;;;7.20;5.90;;;;;;;15.63;66.83;100672.94;130095;1267;109574;-70
2022/07/20 03:06:35;;;;;;;8.90;6.80;;;;;;;15.72;66.69;100676.50;129961;1267;109544;-70
2022/07/20 03:09:42;;;;;;;7.20;6.50;;;;;;;15.80;66.69;100677.77;130100;1267;108697;-69
2022/07/20 03:12:47;;;;;;;8.00;7.00;;;;;;;15.85;66.85;100680.52;130090;1267;107932;-69
2022/07/20 03:15:53;;;;;;;8.60;6.60;;;;;;;15.87;66.74;100684.42;130135;1267;108746;-69
2022/07/20 03:18:59;;;;;;;7.70;6.50;;;;;;;15.85;66.84;100681.80;130151;1267;108706;-70
2022/07/20 03:22:04;;;;;;;7.90;6.50;;;;;;;15.82;68.16;100682.64;130132;1267;108555;-70
2022/07/20 03:25:11;;;;;;;6.50;5.70;;;;;;;16.23;68.59;100682.45;130088;1267;107672;-70
2022/07/20 03:28:18;;;;;;;6.40;5.50;;;;;;;16.71;68.36;100684.45;130109;1267;108674;-70
2022/07/20 03:31:23;;;;;;;6.50;5.60;;;;;;;17.19;68.00;100681.13;130157;1266;108381;-70
2022/07/20 03:34:28;;;;;;;7.90;5.60;;;;;;;17.62;67.57;100683.63;130121;1267;108200;-70
2022/07/20 03:37:34;;;;;;;8.70;6.80;;;;;;;18.04;67.15;100685.81;130095;1267;107469;-70
2022/07/20 03:40:39;;;;;;;7.90;6.30;;;;;;;18.36;66.47;100686.66;130116;1267;108075;-71
2022/07/20 03:43:45;;;;;;;6.90;6.00;;;;;;;18.62;66.38;100690.59;130114;1267;108885;-70
2022/07/20 03:46:50;;;;;;;6.80;5.90;;;;;;;18.91;66.21;100693.57;130123;1267;108736;-70
2022/07/20 03:49:55;;;;;;;7.40;6.00;;;;;;;19.18;65.59;100695.02;130126;1267;109482;-70
2022/07/20 03:53:01;;;;;;;6.50;5.90;;;;;;;19.34;65.39;100695.69;130136;1267;108816;-70
2022/07/20 03:56:07;;;;;;;7.20;6.40;;;;;;;19.51;65.48;100694.85;130102;1267;110344;-70
2022/07/20 03:59:13;;;;;;;8.10;6.60;;;;;;;19.70;65.31;100693.73;130173;1267;108649;-72
2022/07/20 04:02:18;;;;;;;6.90;6.10;;;;;;;19.88;64.92;100696.16;130115;1267;108813;-71
2022/07/20 04:05:24;;;;;;;6.20;5.50;;;;;;;20.11;64.84;100696.18;130114;1267;108853;-72
2022/07/20 04:08:29;;;;;;;6.50;5.80;;;;;;;20.41;64.56;100698.17;130133;1267;107464;-71
2022/07/20 04:11:35;;;;;;;6.40;5.70;;;;;;;20.68;64.33;100700.68;130220;1267;109136;-72
2022/07/20 04:14:41;;;;;;;6.40;5.80;;;;;;;20.94;63.99;100702.25;130258;1267;107575;-73
2022/07/20 04:17:46;;;;;;;6.70;5.90;;;;;;;21.11;63.66;100704.98;130267;1267;108801;-72
2022/07/20 04:20:52;;;;;;;5.90;5.30;;;;;;;21.27;63.54;100698.06;130267;1267;108785;-72
2022/07/20 04:23:57;;;;;;;6.40;5.70;;;;;;;21.46;63.31;100698.89;130203;1267;108757;-72
2022/07/20 04:27:04;;;;;;;7.40;5.40;;;;;;;21.66;63.14;100696.48;130305;1267;109692;-72
2022/07/20 04:30:12;;;;;;;6.00;5.40;;;;;;;21.84;62.91;100690.85;130361;1267;108761;-72
2022/07/20 04:33:18;;;;;;;6.50;5.70;;;;;;;22.03;62.73;100689.53;130326;1267;108955;-72
2022/07/20 04:36:23;;;;;;;6.10;5.30;;;;;;;22.17;62.70;100687.27;130276;1267;108874;-72
2022/07/20 04:39:29;;;;;;;6.80;6.00;;;;;;;22.28;62.51;100690.61;130278;1267;107477;-73
2022/07/20 04:42:34;;;;;;;5.80;5.20;;;;;;;22.32;62.49;100699.99;130231;1267;107457;-72
2022/07/20 04:45:40;;;;;;;6.20;5.50;;;;;;;22.39;62.38;100704.65;130300;1266;108855;-72
2022/07/20 04:48:45;;;;;;;6.20;5.60;;;;;;;22.55;62.14;100705.73;130213;1267;108700;-71
2022/07/20 04:51:50;;;;;;;7.00;6.20;;;;;;;22.72;61.97;100704.93;130096;1267;108862;-72
2022/07/20 04:54:56;;;;;;;8.00;5.90;;;;;;;22.83;62.05;100704.92;130351;1267;108677;-72
2022/07/20 04:58:01;;;;;;;6.60;5.80;;;;;;;22.91;61.89;100709.95;130197;1267;107264;-72
2022/07/20 05:01:06;;;;;;;7.90;6.50;;;;;;;23.00;61.78;100710.87;130023;1267;108918;-70
2022/07/20 05:04:12;;;;;;;7.40;6.70;;;;;;;23.08;61.65;100709.73;130086;1267;107065;-70
2022/07/20 05:07:18;;;;;;;8.40;6.90;;;;;;;23.15;61.54;100718.67;130164;1267;109270;-71
2022/07/20 05:10:23;;;;;;;7.60;6.50;;;;;;;23.20;61.18;100718.38;130150;1267;107628;-70
2022/07/20 05:13:29;;;;;;;7.20;6.30;;;;;;;23.22;61.04;100724.80;130185;1267;109107;-70
2022/07/20 05:16:34;;;;;;;7.40;5.70;;;;;;;23.23;61.34;100731.41;130222;1267;109178;-72
2022/07/20 05:19:39;;;;;;;7.40;5.90;;;;;;;23.28;61.24;100730.55;130160;1268;108997;-73
2022/07/20 05:22:45;;;;;;;8.70;5.90;;;;;;;23.29;60.33;100730.58;130257;1267;109700;-72
2022/07/20 05:25:50;;;;;;;7.00;5.70;;;;;;;23.28;59.95;100734.41;130315;1267;108873;-70
2022/07/20 05:28:56;;;;;;;7.60;6.00;;;;;;;23.26;59.76;100730.66;130161;1267;107343;-72
2022/07/20 05:32:02;;;;;;;7.40;5.70;;;;;;;23.25;59.56;100730.38;130185;1267;108743;-72
2022/07/20 05:35:09;;;;;;;7.40;6.00;;;;;;;23.24;59.36;100731.67;130219;1267;108859;-68
2022/07/20 05:38:14;;;;;;;7.50;5.80;;;;;;;23.25;59.40;100729.83;130082;1267;109574;-69
2022/07/20 05:41:20;;;;;;;6.20;5.50;;;;;;;23.28;59.50;100730.27;130125;1267;108888;-69
2022/07/20 05:44:25;;;;;;;6.30;5.50;;;;;;;23.34;59.47;100728.81;130131;1267;109457;-70
2022/07/20 05:47:30;;;;;;;7.10;5.70;;;;;;;23.41;59.56;100729.20;130079;1267;108712;-69
2022/07/20 05:50:36;;;;;;;8.10;5.60;;;;;;;23.47;59.50;100731.39;130060;1267;107683;-69
2022/07/20 05:53:41;;;;;;;10.00;5.70;;;;;;;23.51;59.21;100731.67;130127;1267;108629;-70
2022/07/20 05:56:47;;;;;;;6.30;5.30;;;;;;;23.56;58.82;100732.63;130088;1266;109595;-69
2022/07/20 05:59:52;;;;;;;7.10;5.30;;;;;;;23.57;58.97;100727.92;130091;1266;109495;-69
2022/07/20 06:02:57;;;;;;;6.20;5.20;;;;;;;23.63;59.08;100729.45;130082;1267;109626;-69
2022/07/20 06:06:03;;;;;;;6.00;5.30;;;;;;;23.68;59.14;100733.96;130115;1267;108652;-71
2022/07/20 06:09:10;;;;;;;6.10;5.40;;;;;;;23.74;59.20;100735.64;130169;1267;108891;-69
2022/07/20 06:12:15;;;;;;;6.40;5.60;;;;;;;23.78;58.69;100735.41;130172;1267;108592;-69
2022/07/20 06:15:21;;;;;;;7.40;5.40;;;;;;;23.78;58.92;100739.89;130115;1267;109530;-71
2022/07/20 06:18:26;;;;;;;5.80;5.10;;;;;;;23.80;58.29;100736.45;130069;1267;108932;-72
2022/07/20 06:21:32;;;;;;;6.50;5.10;;;;;;;23.79;58.30;100732.39;130068;1267;108818;-71
2022/07/20 06:24:37;;;;;;;7.20;5.40;;;;;;;23.84;58.21;100733.08;130085;1267;108753;-71
2022/07/20 06:27:43;;;;;;;6.50;4.90;;;;;;;23.86;58.19;100738.70;130147;1267;108881;-71
2022/07/20 06:30:49;;;;;;;7.00;4.90;;;;;;;23.90;58.02;100739.09;130156;1267;108165;-71
2022/07/20 06:33:54;;;;;;;4.90;4.30;;;;;;;23.90;57.66;100737.73;130107;1267;107661;-69
2022/07/20 06:36:59;;;;;;;5.10;4.60;;;;;;;23.92;57.36;100740.18;130161;1267;109344;-73
2022/07/20 06:40:06;;;;;;;6.30;4.80;;;;;;;23.96;57.08;100741.64;130133;1267;109596;-70
2022/07/20 06:43:12;;;;;;;6.20;4.50;;;;;;;23.97;56.74;100744.83;130221;1266;108612;-70
2022/07/20 06:46:17;;;;;;;6.20;4.90;;;;;;;23.97;56.53;100744.63;130117;1267;110317;-70
2022/07/20 06:49:24;;;;;;;5.10;4.60;;;;;;;23.99;56.48;100747.60;130111;1267;109568;-70
2022/07/20 06:52:30;;;;;;;4.90;3.90;;;;;;;24.03;56.27;100749.52;130119;1267;108331;-71
2022/07/20 06:55:35;;;;;;;5.60;3.70;;;;;;;24.05;55.39;100744.96;130205;1266;107643;-70
2022/07/20 06:58:40;;;;;;;4.10;3.50;;;;;;;24.07;55.01;100742.17;130093;1267;108792;-70
2022/07/20 07:01:46;;;;;;;4.90;3.80;;;;;;;24.10;54.76;100742.08;130102;1267;109393;-70
2022/07/20 07:04:51;;;;;;;4.30;3.80;;;;;;;24.15;54.60;100745.21;130208;1267;109381;-70
2022/07/20 07:07:56;;;;;;;5.10;4.40;;;;;;;24.21;54.50;100746.58;130127;1266;108852;-70
2022/07/20 07:11:02;;;;;;;4.50;3.80;;;;;;;24.28;54.44;100746.40;130059;1267;108731;-70
2022/07/20 07:14:07;;;;;;;4.80;3.80;;;;;;;24.33;54.13;100748.52;130125;1267;108669;-70
2022/07/20 07:17:13;;;;;;;4.20;3.80;;;;;;;24.34;53.45;100753.38;130125;1267;108072;-70
2022/07/20 07:20:18;;;;;;;4.90;3.90;;;;;;;24.38;53.65;100756.46;130108;1267;108804;-70
2022/07/20 07:23:23;;;;;;;4.80;3.60;;;;;;;24.42;53.01;100757.66;130142;1267;108694;-70
2022/07/20 07:26:29;;;;;;;6.30;3.60;;;;;;;24.45;53.35;100762.45;130189;1267;108018;-69
2022/07/20 07:29:35;;;;;;;4.60;4.00;;;;;;;24.48;52.76;100757.27;130184;1267;108757;-70
2022/07/20 07:32:40;;;;;;;4.00;3.60;;;;;;;24.55;53.13;100757.44;130180;1267;110310;-70
2022/07/20 07:35:45;;;;;;;4.80;3.50;;;;;;;24.62;53.14;100757.45;130107;1267;108782;-70
2022/07/20 07:38:51;;;;;;;4.00;3.60;;;;;;;24.70;53.13;100759.56;130101;1267;108653;-70
2022/07/20 07:41:56;;;;;;;5.10;3.90;;;;;;;24.80;52.73;100760.58;130121;1267;108716;-69
2022/07/20 07:45:06;;;;;;;3.80;3.50;;;;;;;24.87;52.32;100756.98;130120;1267;109498;-69
2022/07/20 07:48:11;;;;;;;4.10;3.60;;;;;;;24.93;52.50;100751.21;130165;1267;107528;-70
2022/07/20 07:51:17;;;;;;;4.20;3.10;;;;;;;25.02;51.97;100749.08;130141;1267;108811;-70
2022/07/20 07:54:22;;;;;;;3.30;3.00;;;;;;;25.04;51.47;100748.75;130160;1267;108745;-70
2022/07/20 07:57:28;;;;;;;3.60;3.20;;;;;;;25.08;51.72;100745.95;130188;1267;108672;-70
2022/07/20 08:00:35;;;;;;;5.30;3.50;;;;;;;25.17;51.52;100745.29;130183;1267;108864;-70
2022/07/20 08:03:41;;;;;;;3.50;3.10;;;;;;;25.23;51.81;100745.77;130114;1267;108759;-70
2022/07/20 08:06:48;;;;;;;4.10;3.30;;;;;;;25.31;51.77;100745.36;130127;1264;108399;-70
2022/07/20 08:09:54;;;;;;;4.40;3.60;;;;;;;25.36;51.55;100745.30;130190;1267;108535;-70
2022/07/20 08:12:59;;;;;;;4.10;3.50;;;;;;;25.44;51.35;100745.14;130109;1267;108753;-70
2022/07/20 08:16:05;;;;;;;3.70;3.30;;;;;;;25.54;51.57;100744.66;130136;1267;108721;-70
2022/07/20 08:19:11;;;;;;;3.60;3.10;;;;;;;25.59;50.12;100750.78;130114;1266;108831;-70
2022/07/20 08:22:16;;;;;;;4.20;3.30;;;;;;;25.62;49.63;100747.66;130097;1267;108577;-70
2022/07/20 08:25:22;;;;;;;3.30;3.00;;;;;;;25.69;49.79;100747.05;130121;1266;108919;-70
2022/07/20 08:28:27;;;;;;;4.30;2.80;;;;;;;25.73;49.52;100745.06;130122;1267;108642;-70
2022/07/20 08:31:33;;;;;;;3.10;2.80;;;;;;;25.76;49.36;100735.29;130096;1267;108949;-70
2022/07/20 08:34:38;;;;;;;3.20;2.90;;;;;;;25.80;49.25;100734.92;130125;1267;108862;-70
2022/07/20 08:37:43;;;;;;;3.20;2.90;;;;;;;25.84;49.17;100729.20;130209;1267;108885;-70
2022/07/20 08:40:49;;;;;;;3.20;2.90;;;;;;;25.92;49.31;100726.15;130141;1267;108932;-70
2022/07/20 08:43:54;;;;;;;3.20;2.90;;;;;;;25.96;48.22;100730.23;130116;1266;109159;-70
2022/07/20 08:47:00;;;;;;;3.90;3.00;;;;;;;26.02;47.52;100727.41;130115;1267;108649;-70
2022/07/20 08:50:07;;;;;;;3.80;2.90;;;;;;;26.07;48.21;100727.00;130157;1267;108851;-71
2022/07/20 08:53:13;;;;;;;3.40;3.10;;;;;;;26.13;47.96;100727.05;130116;1267;109424;-70
2022/07/20 08:56:18;;;;;;;3.60;2.70;;;;;;;26.20;47.99;100722.70;130196;1267;107729;-71
2022/07/20 08:59:23;;;;;;;5.20;2.80;;;;;;;26.26;46.38;100721.12;130143;1267;109564;-70
2022/07/20 09:02:29;;;;;;;3.20;2.90;;;;;;;26.32;45.80;100717.81;130139;1267;108709;-70
2022/07/20 09:05:38;;;;;;;4.00;3.00;;;;;;;26.42;47.15;100718.98;130128;1267;109560;-70
2022/07/20 09:09:04;;;;;;;3.60;2.80;;;;;;;26.49;47.41;100721.56;130122;1266;108701;-71
2022/07/20 09:12:10;;;;;;;3.30;2.60;;;;;;;26.59;46.75;100718.40;129926;1267;331913;-70
2022/07/20 09:15:25;;;;;;;3.10;2.70;;;;;;;26.60;46.57;100716.70;130194;1267;107673;-71
2022/07/20 09:18:32;;;;;;;3.50;2.60;;;;;;;26.62;46.01;100714.64;130126;1267;108998;-70
2022/07/20 09:21:38;;;;;;;4.10;2.70;;;;;;;26.63;45.55;100716.67;130160;1267;108589;-70
2022/07/20 09:24:44;;;;;;;3.40;2.70;;;;;;;26.69;45.87;100714.69;130135;1267;108555;-71
2022/07/20 09:27:49;;;;;;;3.10;2.80;;;;;;;26.73;46.13;100712.94;130199;1267;108993;-71
2022/07/20 09:30:57;;;;;;;4.00;2.80;;;;;;;26.76;46.51;100712.18;130196;1267;109098;-70
2022/07/20 09:34:04;;;;;;;4.90;2.90;;;;;;;26.79;46.55;100713.76;130231;1267;107666;-70
2022/07/20 09:37:17;;;;;;;2.90;2.50;;;;;;;26.83;46.38;100713.17;130214;1267;108919;-70
2022/07/20 09:40:24;;;;;;;2.90;2.60;;;;;;;26.88;45.95;100711.83;130262;1267;108657;-70
2022/07/20 09:43:31;;;;;;;3.70;2.60;;;;;;;26.92;45.35;100712.14;130187;1267;108466;-70
2022/07/20 09:46:39;;;;;;;2.50;2.30;;;;;;;26.95;44.77;100712.36;130141;1267;109091;-70
2022/07/20 09:49:45;;;;;;;2.50;2.20;;;;;;;27.04;44.32;100711.14;130149;1267;108581;-71
2022/07/20 09:52:50;;;;;;;3.70;2.30;;;;;;;27.15;44.04;100704.82;130118;1267;108838;-71
2022/07/20 09:55:57;;;;;;;4.20;2.40;;;;;;;27.24;44.49;100699.55;130054;1267;109535;-72
2022/07/20 09:59:05;;;;;;;2.20;1.90;;;;;;;27.30;43.58;100701.55;130170;1267;107861;-71
2022/07/20 10:02:11;;;;;;;2.10;1.80;;;;;;;27.38;42.12;100700.99;130323;1267;108716;-71
2022/07/20 10:05:18;;;;;;;2.50;1.70;;;;;;;27.39;41.11;100705.55;130239;1267;108729;-70
2022/07/20 10:08:25;;;;;;;2.10;1.80;;;;;;;27.48;40.51;100702.86;130180;1267;108743;-70
2022/07/20 10:11:31;;;;;;;2.50;1.90;;;;;;;27.61;42.65;100705.94;130222;1267;108785;-71
2022/07/20 10:14:41;;;;;;;3.00;2.20;;;;;;;27.66;42.49;100699.15;130215;1267;108796;-71
2022/07/20 10:17:48;;;;;;;2.30;2.10;;;;;;;27.68;42.15;100700.05;130245;1267;108276;-70
2022/07/20 10:20:53;;;;;;;3.50;1.70;;;;;;;27.70;42.20;100695.74;130217;1267;107731;-70
2022/07/20 10:24:16;;;;;;;1.70;1.60;;;;;;;27.74;39.98;100702.64;130199;1267;108697;-70
2022/07/20 10:27:28;;;;;;;2.40;1.70;;;;;;;27.86;40.27;100705.13;130205;1267;109034;-71
2022/07/20 10:30:51;;;;;;;1.30;1.20;;;;;;;27.93;40.43;100706.58;130132;1267;108792;-71
2022/07/20 10:33:57;;;;;;;1.80;1.30;;;;;;;27.95;39.43;100708.17;130126;1266;107701;-70
2022/07/20 10:37:22;;;;;;;2.30;1.70;;;;;;;28.00;40.33;100704.83;130169;1267;108388;-71
2022/07/20 10:40:29;;;;;;;2.10;1.90;;;;;;;27.99;40.23;100707.29;130102;1266;108965;-70
2022/07/20 10:43:34;;;;;;;3.50;1.90;;;;;;;28.01;40.13;100704.83;130155;1267;108685;-70
2022/07/20 10:46:40;;;;;;;2.20;1.80;;;;;;;28.06;40.59;100708.55;130178;1267;108876;-71
2022/07/20 10:50:06;;;;;;;2.10;1.80;;;;;;;28.08;40.71;100706.28;130102;1267;107193;-71
2022/07/20 10:53:30;;;;;;;2.10;1.90;;;;;;;28.10;40.57;100700.15;130256;1267;108629;-70
2022/07/20 10:56:35;;;;;;;2.50;2.00;;;;;;;28.14;40.49;100702.89;130083;1267;108594;-70
2022/07/20 10:59:41;;;;;;;2.50;2.10;;;;;;;28.19;40.31;100705.62;130143;1267;109538;-70
2022/07/20 11:02:46;;;;;;;2.00;1.80;;;;;;;28.22;40.68;100702.04;130122;1266;109039;-70
2022/07/20 11:06:05;;;;;;;1.70;1.60;;;;;;;28.24;40.19;100699.68;130114;1266;108965;-72
2022/07/20 11:09:11;;;;;;;3.20;1.90;;;;;;;28.34;40.07;100703.06;130091;1267;110296;-72
2022/07/20 11:12:27;;;;;;;2.30;2.00;;;;;;;28.40;40.13;100699.44;130125;1267;108595;-71
2022/07/20 11:15:41;;;;;;;3.40;1.90;;;;;;;28.45;39.58;100699.60;130173;1267;108846;-72
2022/07/20 11:18:47;;;;;;;1.90;1.70;;;;;;;28.42;39.50;100697.10;130131;1267;108856;-71
2022/07/20 11:21:53;;;;;;;1.90;1.50;;;;;;;28.40;39.29;100694.29;130209;1267;108660;-70
2022/07/20 11:24:59;;;;;;;1.90;1.70;;;;;;;28.44;39.68;100692.34;130115;1266;108771;-72
2022/07/20 11:28:05;;;;;;;2.00;1.70;;;;;;;28.45;39.27;100691.20;130192;1267;108894;-72
2022/07/20 11:31:10;;;;;;;2.40;1.60;;;;;;;28.46;40.05;100688.14;130240;1267;108994;-72
2022/07/20 11:34:16;;;;;;;3.20;1.60;;;;;;;28.47;39.23;100692.80;130131;1267;108691;-72
2022/07/20 11:37:23;;;;;;;1.30;1.20;;;;;;;28.45;38.75;100690.16;130113;1267;107769;-71
2022/07/20 11:40:28;;;;;;;1.30;1.10;;;;;;;28.55;37.23;100690.91;130262;1267;108689;-71
2022/07/20 11:43:35;;;;;;;1.30;0.80;;;;;;;28.71;35.75;100689.52;130338;1267;108576;-77
2022/07/20 11:46:42;;;;;;;1.10;1.00;;;;;;;28.82;37.06;100687.45;130328;1267;108532;-70
2022/07/20 11:49:47;;;;;;;3.70;1.10;;;;;;;28.85;35.89;100686.81;130239;1267;108859;-70
2022/07/20 11:52:52;;;;;;;1.20;1.10;;;;;;;28.92;35.12;100681.96;130100;1267;108248;-70
2022/07/20 11:55:59;;;;;;;1.30;1.00;;;;;;;28.98;36.43;100677.48;130144;1267;108854;-70
2022/07/20 11:59:07;;;;;;;1.50;1.20;;;;;;;29.04;35.72;100673.23;130190;1267;108249;-70
2022/07/20 12:02:13;;;;;;;2.00;1.10;;;;;;;29.11;35.60;100673.02;130141;1267;107108;-72
2022/07/20 12:05:18;;;;;;;2.20;1.20;;;;;;;29.19;35.63;100669.66;130254;1266;108669;-71
2022/07/20 12:08:24;;;;;;;1.10;1.00;;;;;;;29.21;35.00;100672.70;130172;1267;108866;-70
2022/07/20 12:11:30;;;;;;;1.40;1.10;;;;;;;29.24;35.44;100671.34;130164;1267;108730;-70
2022/07/20 12:14:38;;;;;;;1.10;1.00;;;;;;;29.20;35.78;100672.90;130137;1267;109647;-71
2022/07/20 12:17:51;;;;;;;2.20;0.90;;;;;;;29.19;34.27;100674.61;130139;1267;108863;-72
2022/07/20 12:21:01;;;;;;;1.40;1.10;;;;;;;29.21;34.44;100668.45;130270;1267;107236;-70
2022/07/20 12:24:08;;;;;;;1.50;1.30;;;;;;;29.20;35.03;100668.57;130285;1267;108841;-71
2022/07/20 12:27:16;;;;;;;2.40;1.40;;;;;;;29.21;35.61;100667.09;130142;1266;108927;-70
2022/07/20 12:30:31;;;;;;;1.60;1.10;;;;;;;29.15;36.12;100659.48;130220;1267;108746;-70
2022/07/20 12:33:36;;;;;;;2.20;1.10;;;;;;;29.09;35.43;100657.86;130181;1267;108834;-73
2022/07/20 12:36:44;;;;;;;3.90;2.70;;;;;;;29.14;34.77;100654.84;130115;1267;108704;-73
2022/07/20 12:39:53;;;;;;;1.70;1.50;;;;;;;29.26;34.88;100652.05;130161;1267;109150;-71
2022/07/20 12:42:59;;;;;;;2.60;1.40;;;;;;;29.33;34.34;100654.88;130013;1267;108872;-71
2022/07/20 12:46:07;;;;;;;1.50;1.40;;;;;;;29.37;34.86;100649.90;130246;1267;106868;-71
2022/07/20 12:49:21;;;;;;;1.70;1.40;;;;;;;29.33;35.09;100646.52;130271;1267;108684;-71
2022/07/20 12:52:26;;;;;;;1.60;1.50;;;;;;;29.34;34.83;100650.27;130314;1267;108955;-72
2022/07/20 12:55:32;;;;;;;2.90;2.50;;;;;;;29.40;33.89;100650.46;130446;1267;107411;-71
2022/07/20 12:58:38;;;;;;;2.00;1.80;;;;;;;29.44;34.08;100650.30;130281;1267;108794;-71
2022/07/20 13:01:48;;;;;;;1.70;1.40;;;;;;;29.47;34.07;100646.91;130295;1267;108563;-73
2022/07/20 13:04:54;;;;;;;1.60;1.40;;;;;;;29.53;34.20;100644.63;130307;1267;108968;-71
2022/07/20 13:07:59;;;;;;;3.70;1.40;;;;;;;29.57;33.69;100646.12;130334;1267;108936;-71
2022/07/20 13:11:06;;;;;;;2.40;1.40;;;;;;;29.60;33.46;100639.64;130353;1267;108186;-71
2022/07/20 13:14:12;;;;;;;5.50;3.90;;;;;;;29.64;33.55;100638.66;130324;1267;108743;-71
2022/07/20 13:17:17;;;;;;;2.20;1.90;;;;;;;29.71;33.77;100635.88;130282;1267;108881;-71
2022/07/20 13:20:23;;;;;;;2.30;1.50;;;;;;;29.75;33.78;100636.64;130233;1267;107715;-71
2022/07/20 13:23:28;;;;;;;1.80;1.60;;;;;;;29.79;33.88;100636.80;130255;1267;108645;-71
2022/07/20 13:26:34;;;;;;;2.00;1.60;;;;;;;29.81;32.83;100637.13;130265;1267;108511;-71
2022/07/20 13:29:39;;;;;;;2.00;1.50;;;;;;;29.83;33.68;100635.14;130219;1267;108804;-71
2022/07/20 13:32:45;;;;;;;1.80;1.70;;;;;;;29.85;33.76;100630.36;130309;1267;108712;-72
2022/07/20 13:35:50;;;;;;;2.10;1.70;;;;;;;29.82;33.64;100626.89;130333;1267;108489;-71
2022/07/20 13:38:56;;;;;;;1.90;1.70;;;;;;;29.85;33.83;100625.54;130231;1267;108809;-71
2022/07/20 13:42:02;;;;;;;2.80;1.80;;;;;;;29.86;33.97;100623.66;130331;1267;108503;-71
2022/07/20 13:45:09;;;;;;;2.50;1.80;;;;;;;29.88;33.30;100620.91;130345;1266;108785;-71
2022/07/20 13:48:14;;;;;;;2.00;1.80;;;;;;;29.89;33.17;100621.84;130367;1267;109687;-72
2022/07/20 13:51:20;;;;;;;2.40;1.70;;;;;;;29.92;34.12;100616.95;130318;1266;108973;-73
2022/07/20 13:54:25;;;;;;;2.10;1.90;;;;;;;29.90;33.52;100614.38;130315;1267;108685;-72
2022/07/20 13:57:31;;;;;;;2.20;1.90;;;;;;;29.92;32.95;100612.39;130534;1267;109125;-71
2022/07/20 14:00:37;;;;;;;1.80;1.60;;;;;;;29.93;32.96;100609.48;130349;1267;109096;-72
2022/07/20 14:03:42;;;;;;;2.30;1.70;;;;;;;29.95;32.67;100607.77;130304;1267;108693;-71
2022/07/20 14:06:48;;;;;;;1.70;1.60;;;;;;;29.98;32.60;100602.92;130327;1267;108727;-72
2022/07/20 14:09:53;;;;;;;1.90;1.70;;;;;;;30.00;33.32;100605.13;130290;1267;108740;-76